Weather at Dubai International Airport

Public forecast

Using degrees Celsius for public forecast. Weather courtesy of forecast.io.

Current aviation weather report (METAR) for Dubai International Airport

Retrieved 2021/07/27 08:00 UTC (20 minutes ago):

OMDB 270800Z 28011KT 8000 NSC 41/21 Q0994 NOSIG

Aviation forecast (TAF) for Dubai International Airport

Retrieved 2021/07/27 06:00 UTC (2 hours ago):

TAF OMDB 270500Z 2706/2812 24007KT 7000 NSC PROB30 2706/2708 4000 DU BECMG 2707/2709 30012KT BECMG 2715/2717 VRB02KT BECMG 2802/2804 19010KT BECMG 2807/2809 30013KT